Time,TemperatureF,DewpointF,PressureIn,WindDirection,WindDirectionDegrees,WindSpeedMPH,WindSpeedGustMPH,Humidity,HourlyPrecipIn,Conditions,Clouds,dailyrainin,SoftwareType,DateUTC
2013-03-30 00:02:00,58.7,53.0,30.22,ESE,120,0.0,0.0,80,0.00,,,0.00,weatherlink.com 1.10,2013-03-30 04:02:00,
2013-03-30 00:17:00,57.8,52.0,30.22,ESE,120,0.0,0.0,82,0.00,,,0.00,weatherlink.com 1.10,2013-03-30 04:17:00,
2013-03-30 00:32:00,57.2,52.0,30.22,ESE,120,0.0,0.0,84,0.00,,,0.00,weatherlink.com 1.10,2013-03-30 04:32:00,
2013-03-30 00:47:00,56.7,52.0,30.22,ESE,120,0.0,0.0,85,0.00,,,0.00,weatherlink.com 1.10,2013-03-30 04:47:00,
2013-03-30 01:02:00,56.1,52.0,30.22,ESE,120,0.0,0.0,87,0.00,,,0.00,weatherlink.com 1.10,2013-03-30 05:02:00,
2013-03-30 01:17:00,55.9,52.0,30.22,ESE,120,0.0,0.0,88,0.00,,,0.00,weatherlink.com 1.10,2013-03-30 05:17:00,
2013-03-30 01:32:00,55.2,52.0,30.21,ESE,120,0.0,0.0,89,0.00,,,0.00,weatherlink.com 1.10,2013-03-30 05:32:00,
2013-03-30 01:47:00,54.9,52.0,30.20,ESE,120,0.0,0.0,89,0.00,,,0.00,weatherlink.com 1.10,2013-03-30 05:47:00,
2013-03-30 02:17:00,54.7,53.0,30.20,ESE,120,0.0,0.0,92,0.00,,,0.00,weatherlink.com 1.10,2013-03-30 06:17:00,
2013-03-30 02:32:00,54.0,52.0,30.20,ESE,120,0.0,0.0,92,0.00,,,0.00,weatherlink.com 1.10,2013-03-30 06:32:00,
2013-03-30 02:47:00,54.1,52.0,30.20,ESE,120,0.0,0.0,93,0.00,,,0.00,weatherlink.com 1.10,2013-03-30 06:47:00,
2013-03-30 03:02:00,53.7,52.0,30.19,ESE,120,0.0,0.0,93,0.00,,,0.00,weatherlink.com 1.10,2013-03-30 07:02:00,
2013-03-30 03:17:00,53.7,52.0,30.19,ESE,120,0.0,0.0,94,0.00,,,0.00,weatherlink.com 1.10,2013-03-30 07:17:00,
2013-03-30 03:32:00,53.6,52.0,30.19,ESE,120,0.0,0.0,94,0.00,,,0.00,weatherlink.com 1.10,2013-03-30 07:32:00,
2013-03-30 03:48:00,53.6,52.0,30.19,ESE,120,0.0,0.0,94,0.00,,,0.00,weatherlink.com 1.10,2013-03-30 07:48:00,
2013-03-30 04:03:00,53.3,51.0,30.19,ESE,120,0.0,0.0,93,0.00,,,0.00,weatherlink.com 1.10,2013-03-30 08:03:00,
2013-03-30 04:18:00,52.9,51.0,30.19,ESE,120,0.0,0.0,93,0.00,,,0.00,weatherlink.com 1.10,2013-03-30 08:18:00,
2013-03-30 04:33:00,52.2,51.0,30.19,ESE,120,0.0,0.0,94,0.00,,,0.00,weatherlink.com 1.10,2013-03-30 08:33:00,
2013-03-30 04:48:00,52.5,51.0,30.19,ESE,120,0.0,0.0,95,0.00,,,0.00,weatherlink.com 1.10,2013-03-30 08:48:00,
2013-03-30 05:03:00,52.6,51.0,30.18,ESE,120,0.0,0.0,95,0.00,,,0.00,weatherlink.com 1.10,2013-03-30 09:03:00,
2013-03-30 05:18:00,52.7,52.0,30.19,ESE,120,0.0,0.0,96,0.00,,,0.00,weatherlink.com 1.10,2013-03-30 09:18:00,
2013-03-30 05:33:00,52.9,52.0,30.19,ESE,120,0.0,0.0,96,0.00,,,0.00,weatherlink.com 1.10,2013-03-30 09:33:00,
2013-03-30 05:48:00,52.4,51.0,30.19,ESE,120,0.0,0.0,95,0.00,,,0.00,weatherlink.com 1.10,2013-03-30 09:48:00,
2013-03-30 06:03:00,52.2,51.0,30.19,ESE,120,0.0,0.0,96,0.00,,,0.00,weatherlink.com 1.10,2013-03-30 10:03:00,
2013-03-30 06:18:00,52.1,51.0,30.19,ESE,120,0.0,0.0,96,0.00,,,0.00,weatherlink.com 1.10,2013-03-30 10:18:00,
2013-03-30 06:33:00,52.0,51.0,30.20,ESE,120,0.0,0.0,96,0.00,,,0.00,weatherlink.com 1.10,2013-03-30 10:33:00,
2013-03-30 06:48:00,53.4,53.0,30.20,ESE,120,0.0,1.0,97,0.00,,,0.00,weatherlink.com 1.10,2013-03-30 10:48:00,
2013-03-30 07:03:00,52.9,52.0,30.20,ESE,120,0.0,0.0,96,0.00,,,0.00,weatherlink.com 1.10,2013-03-30 11:03:00,
2013-03-30 07:18:00,52.5,51.0,30.20,ESE,120,0.0,0.0,96,0.00,,,0.00,weatherlink.com 1.10,2013-03-30 11:18:00,
2013-03-30 07:33:00,52.6,52.0,30.21,ESE,120,0.0,0.0,97,0.00,,,0.00,weatherlink.com 1.10,2013-03-30 11:33:00,
2013-03-30 07:48:00,52.9,52.0,30.22,ESE,120,0.0,0.0,97,0.00,,,0.00,weatherlink.com 1.10,2013-03-30 11:48:00,
2013-03-30 08:03:00,55.8,55.0,30.23,ESE,120,0.0,0.0,98,0.00,,,0.00,weatherlink.com 1.10,2013-03-30 12:03:00,
2013-03-30 08:18:00,60.0,60.0,30.23,ESE,120,0.0,0.0,98,0.00,,,0.00,weatherlink.com 1.10,2013-03-30 12:18:00,
2013-03-30 08:33:00,62.4,62.0,30.24,ESE,120,0.0,0.0,98,0.00,,,0.00,weatherlink.com 1.10,2013-03-30 12:33:00,
2013-03-30 08:48:00,64.0,60.0,30.23,ESE,103,0.0,2.0,88,0.00,,,0.00,weatherlink.com 1.10,2013-03-30 12:48:00,
2013-03-30 09:03:00,67.1,58.0,30.24,East,97,1.0,2.0,72,0.00,,,0.00,weatherlink.com 1.10,2013-03-30 13:03:00,
2013-03-30 09:18:00,68.8,56.0,30.24,ESE,107,3.0,3.0,64,0.00,,,0.00,weatherlink.com 1.10,2013-03-30 13:18:00,
2013-03-30 09:33:00,69.7,55.0,30.24,ESE,115,4.0,4.0,59,0.00,,,0.00,weatherlink.com 1.10,2013-03-30 13:33:00,
2013-03-30 09:48:00,70.2,54.0,30.23,East,91,3.0,7.0,57,0.00,,,0.00,weatherlink.com 1.10,2013-03-30 13:48:00,
2013-03-30 10:03:00,70.9,55.0,30.24,SE,134,2.0,7.0,57,0.00,,,0.00,weatherlink.com 1.10,2013-03-30 14:03:00,
2013-03-30 10:18:00,70.7,53.0,30.24,ESE,115,6.0,10.0,54,0.00,,,0.00,weatherlink.com 1.10,2013-03-30 14:18:00,
2013-03-30 10:33:00,70.7,54.0,30.24,East,88,7.0,9.0,55,0.00,,,0.00,weatherlink.com 1.10,2013-03-30 14:33:00,
2013-03-30 10:48:00,72.0,53.0,30.24,SE,143,5.0,8.0,52,0.00,,,0.00,weatherlink.com 1.10,2013-03-30 14:48:00,
2013-03-30 11:04:00,71.6,52.0,30.24,ESE,117,3.0,9.0,51,0.00,,,0.00,weatherlink.com 1.10,2013-03-30 15:04:00,
2013-03-30 11:33:00,72.3,51.0,30.24,East,90,3.0,6.0,48,0.00,,,0.00,weatherlink.com 1.10,2013-03-30 15:33:00,
2013-03-30 11:48:00,72.8,52.0,30.24,SE,124,2.0,9.0,49,0.00,,,0.00,weatherlink.com 1.10,2013-03-30 15:48:00,
2013-03-30 12:03:00,73.5,51.0,30.24,East,89,4.0,7.0,46,0.00,,,0.00,weatherlink.com 1.10,2013-03-30 16:03:00,
2013-03-30 12:18:00,73.1,51.0,30.24,ESE,109,4.0,8.0,46,0.00,,,0.00,weatherlink.com 1.10,2013-03-30 16:18:00,
2013-03-30 12:33:00,73.7,52.0,30.23,East,101,2.0,7.0,47,0.00,,,0.00,weatherlink.com 1.10,2013-03-30 16:33:00,
2013-03-30 12:48:00,73.8,51.0,30.23,ESE,116,4.0,7.0,45,0.00,,,0.00,weatherlink.com 1.10,2013-03-30 16:48:00,
2013-03-30 13:03:00,73.4,51.0,30.22,SE,131,3.0,11.0,45,0.00,,,0.00,weatherlink.com 1.10,2013-03-30 17:03:00,
2013-03-30 13:18:00,74.3,51.0,30.22,SE,136,2.0,8.0,44,0.00,,,0.00,weatherlink.com 1.10,2013-03-30 17:18:00,
2013-03-30 13:33:00,74.1,51.0,30.21,SSE,148,1.0,9.0,45,0.00,,,0.00,weatherlink.com 1.10,2013-03-30 17:33:00,
2013-03-30 13:48:00,74.2,52.0,30.21,NE,56,2.0,7.0,46,0.00,,,0.00,weatherlink.com 1.10,2013-03-30 17:48:00,
2013-03-30 14:03:00,74.6,54.0,30.20,SSE,152,5.0,7.0,48,0.00,,,0.00,weatherlink.com 1.10,2013-03-30 18:03:00,
2013-03-30 14:18:00,74.4,54.0,30.19,East,82,8.0,10.0,49,0.00,,,0.00,weatherlink.com 1.10,2013-03-30 18:18:00,
2013-03-30 14:33:00,74.5,54.0,30.18,East,89,4.0,8.0,49,0.00,,,0.00,weatherlink.com 1.10,2013-03-30 18:33:00,
2013-03-30 14:48:00,73.6,54.0,30.17,ESE,122,3.0,11.0,51,0.00,,,0.00,weatherlink.com 1.10,2013-03-30 18:48:00,
2013-03-30 15:03:00,73.7,53.0,30.17,ENE,68,3.0,8.0,49,0.00,,,0.00,weatherlink.com 1.10,2013-03-30 19:03:00,
2013-03-30 15:18:00,73.7,55.0,30.16,SE,127,5.0,9.0,52,0.00,,,0.00,weatherlink.com 1.10,2013-03-30 19:18:00,
2013-03-30 15:33:00,73.7,53.0,30.16,East,97,4.0,11.0,49,0.00,,,0.00,weatherlink.com 1.10,2013-03-30 19:33:00,
2013-03-30 15:49:00,73.6,54.0,30.15,ESE,107,5.0,10.0,51,0.00,,,0.00,weatherlink.com 1.10,2013-03-30 19:49:00,
2013-03-30 16:04:00,74.2,54.0,30.15,SE,132,4.0,8.0,49,0.00,,,0.00,weatherlink.com 1.10,2013-03-30 20:04:00,
2013-03-30 16:19:00,74.2,54.0,30.15,SSE,159,4.0,10.0,49,0.00,,,0.00,weatherlink.com 1.10,2013-03-30 20:19:00,
2013-03-30 16:34:00,74.2,52.0,30.15,ESE,117,4.0,7.0,46,0.00,,,0.00,weatherlink.com 1.10,2013-03-30 20:34:00,
2013-03-30 16:49:00,73.5,53.0,30.15,ENE,65,3.0,7.0,49,0.00,,,0.00,weatherlink.com 1.10,2013-03-30 20:49:00,
2013-03-30 17:04:00,74.1,52.0,30.14,East,91,2.0,8.0,47,0.00,,,0.00,weatherlink.com 1.10,2013-03-30 21:04:00,
2013-03-30 17:19:00,73.9,53.0,30.14,ESE,115,7.0,7.0,48,0.00,,,0.00,weatherlink.com 1.10,2013-03-30 21:19:00,
2013-03-30 17:49:00,73.3,53.0,30.15,East,86,7.0,9.0,50,0.00,,,0.00,weatherlink.com 1.10,2013-03-30 21:49:00,
2013-03-30 18:04:00,72.6,53.0,30.15,ESE,108,7.0,9.0,51,0.00,,,0.00,weatherlink.com 1.10,2013-03-30 22:04:00,
2013-03-30 18:19:00,72.6,54.0,30.15,SE,141,2.0,6.0,52,0.00,,,0.00,weatherlink.com 1.10,2013-03-30 22:19:00,
2013-03-30 18:34:00,72.3,54.0,30.15,ESE,113,9.0,9.0,53,0.00,,,0.00,weatherlink.com 1.10,2013-03-30 22:34:00,
2013-03-30 18:49:00,71.9,54.0,30.15,ESE,121,6.0,7.0,53,0.00,,,0.00,weatherlink.com 1.10,2013-03-30 22:49:00,
2013-03-30 19:04:00,71.4,54.0,30.15,ESE,104,1.0,6.0,55,0.00,,,0.00,weatherlink.com 1.10,2013-03-30 23:04:00,
2013-03-30 19:19:00,70.4,53.0,30.15,East,86,2.0,7.0,55,0.00,,,0.00,weatherlink.com 1.10,2013-03-30 23:19:00,
2013-03-30 19:34:00,69.6,54.0,30.15,SE,129,2.0,5.0,57,0.00,,,0.00,weatherlink.com 1.10,2013-03-30 23:34:00,
2013-03-30 19:49:00,68.9,54.0,30.15,SE,136,1.0,4.0,59,0.00,,,0.00,weatherlink.com 1.10,2013-03-30 23:49:00,
2013-03-30 20:04:00,68.3,54.0,30.15,ESE,108,1.0,3.0,61,0.00,,,0.00,weatherlink.com 1.10,2013-03-31 00:04:00,
2013-03-30 20:19:00,68.0,55.0,30.16,SE,127,0.0,3.0,63,0.00,,,0.00,weatherlink.com 1.10,2013-03-31 00:19:00,
2013-03-30 20:34:00,67.2,55.0,30.16,SE,124,1.0,2.0,65,0.00,,,0.00,weatherlink.com 1.10,2013-03-31 00:34:00,
2013-03-30 20:49:00,66.7,55.0,30.16,SE,134,0.0,1.0,66,0.00,,,0.00,weatherlink.com 1.10,2013-03-31 00:49:00,
2013-03-30 21:04:00,65.9,55.0,30.16,SE,127,0.0,1.0,68,0.00,,,0.00,weatherlink.com 1.10,2013-03-31 01:04:00,
2013-03-30 21:19:00,64.7,55.0,30.16,SE,127,0.0,0.0,70,0.00,,,0.00,weatherlink.com 1.10,2013-03-31 01:19:00,
2013-03-30 21:34:00,63.5,55.0,30.17,SE,139,0.0,0.0,74,0.00,,,0.00,weatherlink.com 1.10,2013-03-31 01:34:00,
2013-03-30 21:49:00,62.4,55.0,30.17,SE,138,0.0,1.0,77,0.00,,,0.00,weatherlink.com 1.10,2013-03-31 01:49:00,
2013-03-30 22:04:00,61.8,55.0,30.18,ESE,113,0.0,0.0,78,0.00,,,0.00,weatherlink.com 1.10,2013-03-31 02:04:00,
2013-03-30 22:20:00,61.2,56.0,30.18,ESE,117,0.0,0.0,82,0.00,,,0.00,weatherlink.com 1.10,2013-03-31 02:20:00,
2013-03-30 22:35:00,61.2,56.0,30.18,ESE,118,0.0,1.0,83,0.00,,,0.00,weatherlink.com 1.10,2013-03-31 02:35:00,
2013-03-30 22:50:00,60.8,55.0,30.18,SE,130,0.0,0.0,82,0.00,,,0.00,weatherlink.com 1.10,2013-03-31 02:50:00,
2013-03-30 23:05:00,62.0,56.0,30.18,SE,124,1.0,1.0,82,0.00,,,0.00,weatherlink.com 1.10,2013-03-31 03:05:00,
2013-03-30 23:20:00,63.5,56.0,30.18,SE,124,1.0,1.0,77,0.00,,,0.00,weatherlink.com 1.10,2013-03-31 03:20:00,
2013-03-30 23:35:00,64.7,56.0,30.18,ESE,119,1.0,2.0,74,0.00,,,0.00,weatherlink.com 1.10,2013-03-31 03:35:00,
2013-03-30 23:50:00,65.5,55.0,30.17,SSE,149,2.0,4.0,70,0.00,,,0.00,weatherlink.com 1.10,2013-03-31 03:50:00,